Time;durP1;ratioP1;P1;durP2;ratioP2;P2;SDS_P1;SDS_P2;PMS_P1;PMS_P2;Temp;Humidity;BMP_temperature;BMP_pressure;BME280_temperature;BME280_humidity;BME280_pressure;Samples;Min_cycle;Max_cycle;Signal;HPM_P1;HPM_P2
2021/01/17 00:02:25;;;;;;;4.30;3.33;;;-3.40;99.90;;;;;;5052178;28;20190;-79
2021/01/17 00:04:50;;;;;;;4.03;3.10;;;-3.40;99.90;;;;;;5034600;28;20274;-78
2021/01/17 00:07:16;;;;;;;2.63;2.27;;;-3.30;99.90;;;;;;5035435;28;20780;-77
2021/01/17 00:09:41;;;;;;;4.03;3.30;;;-3.40;99.90;;;;;;5036784;28;20600;-77
2021/01/17 00:12:08;;;;;;;6.30;3.67;;;-3.40;99.90;;;;;;5035076;28;20216;-78
2021/01/17 00:14:35;;;;;;;6.23;4.43;;;-3.40;99.90;;;;;;5036143;28;20216;-78
2021/01/17 00:17:01;;;;;;;6.67;3.40;;;-3.40;99.90;;;;;;5034235;28;20198;-77
2021/01/17 00:19:27;;;;;;;2.93;2.37;;;-3.40;99.90;;;;;;5026708;28;20224;-78
2021/01/17 00:21:52;;;;;;;3.07;2.77;;;-3.40;99.90;;;;;;5037166;28;20194;-77
2021/01/17 00:24:18;;;;;;;2.10;2.00;;;-3.40;99.90;;;;;;5034096;28;20218;-78
2021/01/17 00:26:44;;;;;;;3.87;3.33;;;-3.40;99.90;;;;;;5035397;28;20252;-78
2021/01/17 00:29:09;;;;;;;3.83;2.87;;;-3.40;99.90;;;;;;5034703;28;20290;-78
2021/01/17 00:31:36;;;;;;;3.20;1.83;;;-3.40;99.90;;;;;;5036597;28;20190;-77
2021/01/17 00:34:02;;;;;;;2.30;2.10;;;-3.50;99.90;;;;;;5034708;28;20256;-77
2021/01/17 00:36:28;;;;;;;4.20;2.50;;;-3.60;99.90;;;;;;5038538;28;20336;-77
2021/01/17 00:38:53;;;;;;;4.07;1.97;;;-3.60;99.90;;;;;;5039563;28;20303;-77
2021/01/17 00:41:19;;;;;;;5.93;3.10;;;-3.60;99.90;;;;;;5041743;28;20193;-77
2021/01/17 00:43:45;;;;;;;3.80;2.80;;;-3.60;99.90;;;;;;5030820;28;20221;-78
2021/01/17 00:46:10;;;;;;;6.33;3.43;;;-3.60;99.90;;;;;;5040331;28;20252;-78
2021/01/17 00:48:38;;;;;;;5.80;3.17;;;-3.60;99.90;;;;;;5038713;28;20221;-78
2021/01/17 00:51:04;;;;;;;5.03;4.23;;;-3.70;99.90;;;;;;5040332;28;20183;-78
2021/01/17 00:53:29;;;;;;;4.30;2.63;;;-3.70;99.90;;;;;;5042287;28;21176;-78
2021/01/17 00:55:55;;;;;;;3.17;2.87;;;-3.80;99.90;;;;;;5040774;28;20201;-77
2021/01/17 00:58:20;;;;;;;4.20;3.33;;;-3.80;99.90;;;;;;5038354;28;20237;-78
2021/01/17 01:00:46;;;;;;;4.27;2.80;;;-3.80;99.90;;;;;;5041414;28;20202;-78
2021/01/17 01:03:12;;;;;;;3.27;2.23;;;-3.70;99.90;;;;;;5040459;28;20206;-78
2021/01/17 01:05:37;;;;;;;2.27;1.50;;;-3.60;99.90;;;;;;5038414;28;20190;-77
2021/01/17 01:08:07;;;;;;;4.10;2.00;;;-3.50;99.90;;;;;;5037372;28;20213;-77
2021/01/17 01:10:33;;;;;;;2.83;2.57;;;-3.50;99.90;;;;;;5039901;28;20183;-78
2021/01/17 01:12:58;;;;;;;2.73;2.30;;;-3.40;99.90;;;;;;5039758;28;20279;-78
2021/01/17 01:15:24;;;;;;;3.83;2.43;;;-3.30;99.90;;;;;;5029589;28;20289;-76
2021/01/17 01:17:50;;;;;;;2.53;2.27;;;-3.40;99.90;;;;;;5041748;28;20218;-77
2021/01/17 01:20:15;;;;;;;5.13;3.37;;;-3.30;99.90;;;;;;5030164;28;20210;-77
2021/01/17 01:22:42;;;;;;;4.87;3.43;;;-3.30;99.90;;;;;;5037274;28;20265;-78
2021/01/17 01:25:09;;;;;;;3.27;2.97;;;-3.30;99.90;;;;;;5037063;28;20285;-77
2021/01/17 01:27:35;;;;;;;2.97;2.13;;;-3.40;99.90;;;;;;5037945;28;20577;-77
2021/01/17 01:30:01;;;;;;;3.80;2.20;;;-3.50;99.90;;;;;;5031344;28;20232;-77
2021/01/17 01:32:26;;;;;;;5.20;3.70;;;-3.50;99.90;;;;;;5039744;28;20185;-78
2021/01/17 01:34:52;;;;;;;3.67;2.73;;;-3.60;99.90;;;;;;5039777;28;20194;-78
2021/01/17 01:37:17;;;;;;;5.10;4.10;;;-3.60;99.90;;;;;;5038168;28;20191;-77
2021/01/17 01:39:43;;;;;;;3.93;2.70;;;-3.70;99.90;;;;;;5039594;28;20201;-77
2021/01/17 01:42:09;;;;;;;2.87;2.27;;;-3.60;99.90;;;;;;5040053;28;20182;-78
2021/01/17 01:44:34;;;;;;;3.30;2.90;;;-3.60;99.90;;;;;;5038780;28;20221;-78
2021/01/17 01:47:02;;;;;;;4.17;3.67;;;-3.60;99.90;;;;;;5036220;28;20226;-78
2021/01/17 01:49:27;;;;;;;3.23;2.23;;;-3.70;99.90;;;;;;5039609;28;21267;-77
2021/01/17 01:51:56;;;;;;;4.20;2.73;;;-3.60;99.90;;;;;;5041697;28;20189;-77
2021/01/17 01:54:22;;;;;;;3.40;2.97;;;-3.60;99.90;;;;;;5039403;28;20194;-78
2021/01/17 01:56:54;;;;;;;3.13;2.37;;;-3.50;99.90;;;;;;5036824;28;20251;-78
2021/01/17 01:59:21;;;;;;;6.33;2.87;;;-3.50;99.90;;;;;;5040219;28;20301;-78
2021/01/17 02:01:48;;;;;;;3.20;2.00;;;-3.40;99.90;;;;;;5038952;28;20237;-78
2021/01/17 02:04:13;;;;;;;2.87;2.37;;;-3.40;99.90;;;;;;5039987;28;20206;-78
2021/01/17 02:06:52;;;;;;;3.67;2.40;;;-3.40;99.90;;;;;;5039033;28;20201;-78
2021/01/17 02:09:28;;;;;;;4.83;3.37;;;-3.40;99.90;;;;;;5039216;28;20209;-78
2021/01/17 02:12:29;;;;;;;3.57;2.30;;;-3.30;99.90;;;;;;5038818;28;20787;-78
2021/01/17 02:15:10;;;;;;;3.80;2.77;;;-3.40;99.90;;;;;;5040287;28;20190;-77
2021/01/17 02:17:37;;;;;;;4.47;2.23;;;-3.30;99.90;;;;;;5038814;28;20308;-77
2021/01/17 02:20:08;;;;;;;4.63;2.67;;;-3.20;99.90;;;;;;5038695;28;20328;-79
2021/01/17 02:22:47;;;;;;;2.70;2.40;;;-3.10;99.90;;;;;;5054102;28;20217;-78
2021/01/17 02:25:14;;;;;;;5.53;2.40;;;-3.00;99.90;;;;;;5038156;28;20252;-77
2021/01/17 02:27:41;;;;;;;3.53;2.27;;;-3.10;99.90;;;;;;5039718;28;20202;-78
2021/01/17 02:30:11;;;;;;;3.67;2.90;;;-3.00;99.90;;;;;;5029027;28;20640;-78
2021/01/17 02:32:44;;;;;;;4.63;2.80;;;-3.00;99.90;;;;;;5040109;28;20196;-78
2021/01/17 02:35:11;;;;;;;5.00;2.43;;;-3.10;99.90;;;;;;5039961;28;20193;-77
2021/01/17 02:37:54;;;;;;;5.67;3.30;;;-3.10;99.90;;;;;;5039512;28;20222;-77
2021/01/17 02:40:56;;;;;;;8.67;5.17;;;-3.10;99.90;;;;;;5037124;28;20566;-78
2021/01/17 02:43:25;;;;;;;5.37;3.57;;;-3.10;99.90;;;;;;5053610;28;20264;-78
2021/01/17 02:45:50;;;;;;;3.40;3.10;;;-3.10;99.90;;;;;;5037936;28;20236;-78
2021/01/17 02:48:16;;;;;;;4.97;3.90;;;-3.10;99.90;;;;;;5037582;28;20250;-78
2021/01/17 02:50:42;;;;;;;4.00;3.27;;;-3.10;99.90;;;;;;5039110;28;20336;-78
2021/01/17 02:53:29;;;;;;;3.77;3.03;;;-3.10;99.90;;;;;;5037577;28;20264;-78
2021/01/17 02:55:58;;;;;;;3.03;2.73;;;-3.10;99.90;;;;;;5040105;28;20277;-78
2021/01/17 02:58:25;;;;;;;6.40;4.30;;;-3.10;99.90;;;;;;5036448;28;20236;-78
2021/01/17 03:00:56;;;;;;;6.03;3.33;;;-3.20;99.90;;;;;;5038423;28;20195;-77
2021/01/17 03:03:29;;;;;;;4.97;3.97;;;-3.20;99.90;;;;;;5037362;28;20218;-78
2021/01/17 03:05:58;;;;;;;2.97;2.13;;;-3.20;99.90;;;;;;5037614;28;20187;-78
2021/01/17 03:08:24;;;;;;;4.50;3.33;;;-3.20;99.90;;;;;;5038125;28;20749;-78
2021/01/17 03:10:50;;;;;;;3.83;2.87;;;-3.20;99.90;;;;;;5038276;28;20226;-78
2021/01/17 03:13:17;;;;;;;5.60;3.77;;;-3.20;99.90;;;;;;5039158;28;20193;-78
2021/01/17 03:15:42;;;;;;;4.00;2.63;;;-3.20;99.90;;;;;;5037931;28;20193;-78
2021/01/17 03:18:08;;;;;;;5.13;3.50;;;-3.20;99.90;;;;;;5036317;28;20218;-78
2021/01/17 03:20:34;;;;;;;4.07;3.27;;;-3.20;99.90;;;;;;5036238;28;20688;-78
2021/01/17 03:22:59;;;;;;;6.03;3.90;;;-3.20;99.90;;;;;;5028760;28;20304;-77
2021/01/17 03:25:25;;;;;;;8.00;4.37;;;-3.20;99.90;;;;;;5028295;28;20210;-78
2021/01/17 03:27:50;;;;;;;7.60;4.77;;;-3.20;99.90;;;;;;5035044;28;20218;-77
2021/01/17 03:30:16;;;;;;;4.60;3.57;;;-3.20;99.90;;;;;;5036125;28;20186;-78
2021/01/17 03:32:42;;;;;;;5.53;3.90;;;-3.20;99.90;;;;;;5037736;28;20272;-78
2021/01/17 03:35:08;;;;;;;3.40;3.10;;;-3.30;99.90;;;;;;5039471;28;20228;-78
2021/01/17 03:37:34;;;;;;;3.00;2.30;;;-3.30;99.90;;;;;;5038062;28;20241;-78
2021/01/17 03:39:59;;;;;;;4.37;2.93;;;-3.30;99.90;;;;;;5037342;28;20191;-78
2021/01/17 03:42:25;;;;;;;3.83;3.37;;;-3.30;99.90;;;;;;5035425;28;20285;-77
2021/01/17 03:44:50;;;;;;;6.83;3.97;;;-3.30;99.90;;;;;;5037290;28;20691;-78
2021/01/17 03:47:16;;;;;;;2.33;2.13;;;-3.40;99.90;;;;;;5036939;28;20805;-78
2021/01/17 03:49:42;;;;;;;2.97;2.67;;;-3.30;99.90;;;;;;5035796;28;20185;-77
2021/01/17 03:52:07;;;;;;;4.00;3.23;;;-3.40;99.90;;;;;;5036326;28;20187;-77
2021/01/17 03:54:33;;;;;;;4.83;3.10;;;-3.50;99.90;;;;;;5037753;28;20190;-78
2021/01/17 03:56:58;;;;;;;3.77;3.40;;;-3.50;99.90;;;;;;5038665;28;20293;-78
2021/01/17 03:59:24;;;;;;;4.00;3.47;;;-3.60;99.90;;;;;;5037052;28;20441;-78
2021/01/17 04:01:51;;;;;;;5.73;3.37;;;-3.60;99.90;;;;;;5037028;28;20182;-77
2021/01/17 04:04:16;;;;;;;6.57;4.43;;;-3.60;99.90;;;;;;5037902;28;21198;-78
2021/01/17 04:06:42;;;;;;;4.90;3.70;;;-3.60;99.90;;;;;;5038184;28;20187;-78
2021/01/17 04:09:07;;;;;;;4.17;3.00;;;-3.60;99.90;;;;;;5036822;28;20208;-78
2021/01/17 04:11:33;;;;;;;4.37;2.63;;;-3.60;99.90;;;;;;5036628;28;20182;-78
2021/01/17 04:13:59;;;;;;;6.50;3.47;;;-3.70;99.90;;;;;;5037225;28;20216;-78
2021/01/17 04:16:25;;;;;;;3.67;3.37;;;-3.60;99.90;;;;;;5037788;28;20181;-78
2021/01/17 04:18:51;;;;;;;3.43;2.87;;;-3.60;99.90;;;;;;5027362;28;20210;-77
2021/01/17 04:21:17;;;;;;;4.70;3.67;;;-3.60;99.90;;;;;;5036477;28;20228;-78
2021/01/17 04:23:42;;;;;;;3.83;3.10;;;-3.70;99.90;;;;;;5036344;28;20683;-78
2021/01/17 04:26:09;;;;;;;2.07;1.83;;;-3.70;99.90;;;;;;5036638;28;20285;-78
2021/01/17 04:28:35;;;;;;;3.93;2.90;;;-3.70;99.90;;;;;;5053706;28;20264;-78
2021/01/17 04:31:00;;;;;;;5.47;3.83;;;-3.70;99.90;;;;;;5037563;28;20184;-77
2021/01/17 04:33:26;;;;;;;4.70;3.10;;;-3.70;99.90;;;;;;5035234;28;20189;-77
2021/01/17 04:35:52;;;;;;;4.37;2.70;;;-3.80;99.90;;;;;;5035021;28;20193;-78
2021/01/17 04:38:17;;;;;;;3.67;2.53;;;-3.80;99.90;;;;;;5036429;28;20202;-78
2021/01/17 04:40:43;;;;;;;4.03;3.10;;;-3.80;99.90;;;;;;5037132;28;20186;-78
2021/01/17 04:43:18;;;;;;;4.43;2.70;;;-3.80;99.90;;;;;;5036689;28;20301;-77
2021/01/17 04:45:47;;;;;;;5.03;2.97;;;-3.90;99.90;;;;;;5052466;28;21068;-78
2021/01/17 04:48:15;;;;;;;4.03;3.00;;;-3.90;99.90;;;;;;5036705;28;20568;-77
2021/01/17 04:50:44;;;;;;;2.97;2.00;;;-3.90;99.90;;;;;;5035007;28;20759;-78
2021/01/17 04:53:10;;;;;;;2.87;2.50;;;-3.90;99.90;;;;;;5035752;28;20182;-78
2021/01/17 04:55:37;;;;;;;3.10;2.57;;;-3.90;99.90;;;;;;5035317;28;20249;-76
2021/01/17 04:58:06;;;;;;;5.60;3.17;;;-3.80;99.90;;;;;;5033110;28;20226;-76
2021/01/17 05:00:33;;;;;;;4.00;2.83;;;-3.90;99.90;;;;;;5051711;28;20194;-76
2021/01/17 05:03:14;;;;;;;5.40;2.97;;;-3.90;99.90;;;;;;5034401;28;20214;-76
2021/01/17 05:06:24;;;;;;;4.80;2.47;;;-3.90;99.90;;;;;;5034429;28;20197;-76
2021/01/17 05:08:58;;;;;;;3.03;2.83;;;-4.00;99.90;;;;;;5036083;28;20244;-76
2021/01/17 05:11:40;;;;;;;2.63;2.37;;;-4.10;99.90;;;;;;5035965;28;20182;-76
2021/01/17 05:14:33;;;;;;;6.10;2.73;;;-4.10;99.90;;;;;;5051310;28;20197;-76
2021/01/17 05:16:59;;;;;;;2.40;2.00;;;-4.20;99.90;;;;;;5034083;28;20325;-77
2021/01/17 05:19:25;;;;;;;6.73;1.83;;;-4.20;99.90;;;;;;5051762;28;20366;-76
2021/01/17 05:21:51;;;;;;;2.37;1.87;;;-4.20;99.90;;;;;;5038243;28;20193;-76
2021/01/17 05:24:19;;;;;;;4.20;3.13;;;-4.20;99.90;;;;;;5040276;28;20559;-76
2021/01/17 05:26:53;;;;;;;3.03;2.23;;;-4.20;99.90;;;;;;5039858;28;20759;-76
2021/01/17 05:29:27;;;;;;;2.77;2.30;;;-4.20;99.90;;;;;;5040083;28;20593;-77
2021/01/17 05:31:57;;;;;;;3.77;3.20;;;-4.20;99.90;;;;;;5040248;28;20182;-77
2021/01/17 05:34:24;;;;;;;5.57;3.03;;;-4.20;99.90;;;;;;5040253;28;20185;-76
2021/01/17 05:37:09;;;;;;;3.43;2.70;;;-4.30;99.90;;;;;;5039781;28;20299;-76
2021/01/17 05:40:00;;;;;;;2.97;2.30;;;-4.30;99.90;;;;;;5039672;28;20207;-77
2021/01/17 05:42:26;;;;;;;3.57;2.57;;;-4.20;99.90;;;;;;5039909;28;20274;-76
2021/01/17 05:44:54;;;;;;;3.80;2.20;;;-4.20;99.90;;;;;;5038502;28;20723;-77
2021/01/17 05:47:22;;;;;;;2.87;2.63;;;-4.30;99.90;;;;;;5039033;28;20218;-76
2021/01/17 05:49:52;;;;;;;3.30;2.70;;;-4.30;99.90;;;;;;5039316;28;20243;-76
2021/01/17 05:52:19;;;;;;;4.57;3.00;;;-4.30;99.90;;;;;;5038532;28;20209;-76
2021/01/17 05:54:49;;;;;;;3.27;2.60;;;-4.30;99.90;;;;;;5040063;28;20194;-76
2021/01/17 05:57:17;;;;;;;2.00;1.80;;;-4.20;99.90;;;;;;5038980;28;20712;-76
2021/01/17 05:59:43;;;;;;;8.30;3.43;;;-4.20;99.90;;;;;;5030143;28;20205;-76
2021/01/17 06:02:14;;;;;;;4.90;3.00;;;-4.20;99.90;;;;;;5040056;28;20196;-75
2021/01/17 06:04:42;;;;;;;3.40;2.37;;;-4.20;99.90;;;;;;5039810;28;20210;-76
2021/01/17 06:07:09;;;;;;;3.27;2.17;;;-4.20;99.90;;;;;;5038238;28;20195;-77
2021/01/17 06:09:39;;;;;;;3.73;1.97;;;-4.30;99.90;;;;;;5039037;28;20210;-76
2021/01/17 06:12:05;;;;;;;4.17;3.47;;;-4.20;99.90;;;;;;5038740;28;20183;-76
2021/01/17 06:14:31;;;;;;;5.33;3.13;;;-4.10;99.90;;;;;;5039659;28;20967;-76
2021/01/17 06:16:59;;;;;;;5.37;2.50;;;-4.10;99.90;;;;;;5037340;28;20197;-76
2021/01/17 06:19:38;;;;;;;2.60;1.63;;;-4.20;99.90;;;;;;5040051;28;20210;-76
2021/01/17 06:22:09;;;;;;;1.70;1.43;;;-4.20;99.90;;;;;;5038312;28;20186;-77
2021/01/17 06:24:40;;;;;;;3.30;2.67;;;-4.20;99.90;;;;;;5038318;28;20213;-77
2021/01/17 06:27:08;;;;;;;4.87;2.50;;;-4.20;99.90;;;;;;5039252;28;20186;-77
2021/01/17 06:29:43;;;;;;;4.17;3.23;;;-4.20;99.90;;;;;;5037496;28;20236;-76
2021/01/17 06:32:17;;;;;;;3.63;2.93;;;-4.20;99.90;;;;;;5045746;28;20183;-77
2021/01/17 06:34:47;;;;;;;3.67;3.23;;;-4.20;99.90;;;;;;5039017;28;20320;-77
2021/01/17 06:37:15;;;;;;;3.77;2.80;;;-4.20;99.90;;;;;;5039948;28;20222;-77
2021/01/17 06:39:43;;;;;;;2.50;2.03;;;-4.20;99.90;;;;;;5041045;28;20212;-76
2021/01/17 06:42:13;;;;;;;2.50;2.07;;;-4.20;99.90;;;;;;5037593;28;20189;-77
2021/01/17 06:44:39;;;;;;;3.83;2.23;;;-4.20;99.90;;;;;;5037193;28;20209;-77
2021/01/17 06:47:12;;;;;;;5.30;3.07;;;-4.20;99.90;;;;;;5038862;28;20273;-77
2021/01/17 06:49:38;;;;;;;2.27;2.07;;;-4.10;99.90;;;;;;5038976;28;20206;-77
2021/01/17 06:52:05;;;;;;;4.07;2.80;;;-4.10;99.90;;;;;;5053364;28;20182;-77
2021/01/17 06:54:34;;;;;;;4.50;2.93;;;-4.10;99.90;;;;;;5038705;28;20191;-77
2021/01/17 06:57:02;;;;;;;3.20;2.90;;;-4.10;99.90;;;;;;5036737;28;20200;-77
2021/01/17 06:59:45;;;;;;;3.10;2.10;;;-4.10;99.90;;;;;;5039058;28;20214;-77
2021/01/17 07:02:13;;;;;;;2.17;1.77;;;-4.10;99.90;;;;;;5038223;28;20186;-76
2021/01/17 07:04:41;;;;;;;3.07;2.30;;;-4.10;99.90;;;;;;5038153;28;20209;-77
2021/01/17 07:07:06;;;;;;;5.50;3.27;;;-4.00;99.90;;;;;;5028874;28;20247;-77
2021/01/17 07:09:38;;;;;;;3.43;3.13;;;-4.00;99.90;;;;;;5038876;28;20619;-77
2021/01/17 07:12:22;;;;;;;4.10;2.70;;;-3.90;99.90;;;;;;5040353;28;20272;-77
2021/01/17 07:15:06;;;;;;;2.50;2.03;;;-3.90;99.90;;;;;;5051181;28;20219;-77
2021/01/17 07:17:37;;;;;;;2.47;2.27;;;-3.80;99.90;;;;;;5036465;28;20566;-77
2021/01/17 07:20:08;;;;;;;4.70;2.60;;;-3.80;99.90;;;;;;5039863;28;20187;-77
2021/01/17 07:22:35;;;;;;;3.40;3.10;;;-3.70;99.90;;;;;;5036110;28;20198;-76
2021/01/17 07:25:03;;;;;;;2.17;1.97;;;-3.70;99.90;;;;;;5027273;28;20183;-76
2021/01/17 07:28:07;;;;;;;2.90;2.07;;;-3.70;99.90;;;;;;5037317;28;20194;-77
2021/01/17 07:30:42;;;;;;;3.10;2.80;;;-3.60;99.90;;;;;;5051344;28;20718;-76
2021/01/17 07:33:08;;;;;;;4.23;1.83;;;-3.70;99.90;;;;;;5037345;28;20559;-76
2021/01/17 07:35:43;;;;;;;3.37;2.00;;;-3.70;99.90;;;;;;5034352;28;20191;-76
2021/01/17 07:38:17;;;;;;;3.97;2.33;;;-3.60;99.90;;;;;;5034699;28;20210;-76
2021/01/17 07:41:05;;;;;;;3.90;1.83;;;-3.60;99.90;;;;;;5045319;28;20189;-76
2021/01/17 07:43:35;;;;;;;4.67;2.67;;;-3.60;99.90;;;;;;5033064;28;20305;-76
2021/01/17 07:46:03;;;;;;;13.30;6.67;;;-3.60;99.90;;;;;;5044419;28;20670;-76
2021/01/17 07:48:30;;;;;;;4.27;3.33;;;-3.50;99.90;;;;;;5036276;28;20703;-76
2021/01/17 07:50:58;;;;;;;7.90;5.70;;;-3.50;99.90;;;;;;5034843;28;20216;-76
2021/01/17 07:53:39;;;;;;;13.67;8.53;;;-3.40;99.90;;;;;;5031661;28;20186;-76
2021/01/17 07:56:08;;;;;;;7.87;5.13;;;-3.40;99.90;;;;;;5034358;28;20232;-77
2021/01/17 07:58:39;;;;;;;5.73;4.00;;;-3.30;99.90;;;;;;5049481;28;20228;-76
2021/01/17 08:01:04;;;;;;;4.47;3.90;;;-3.30;99.90;;;;;;5051866;28;20659;-76
2021/01/17 08:03:30;;;;;;;3.27;2.97;;;-3.30;99.90;;;;;;5034400;28;20302;-77
2021/01/17 08:06:00;;;;;;;5.10;4.13;;;-3.30;99.90;;;;;;5032905;28;20561;-76
2021/01/17 08:08:35;;;;;;;6.03;4.50;;;-3.20;99.90;;;;;;5034485;28;20194;-76
2021/01/17 08:11:03;;;;;;;4.20;3.23;;;-3.10;99.90;;;;;;5033697;28;20182;-76
2021/01/17 08:13:33;;;;;;;3.47;2.53;;;-3.10;99.90;;;;;;5033453;28;20240;-77
2021/01/17 08:16:12;;;;;;;4.80;4.40;;;-3.10;99.90;;;;;;5032957;28;20209;-76
2021/01/17 08:18:39;;;;;;;7.03;3.60;;;-3.10;99.90;;;;;;5031903;28;20291;-76
2021/01/17 08:21:37;;;;;;;4.40;3.33;;;-3.10;99.90;;;;;;5033082;28;20190;-77
2021/01/17 08:24:12;;;;;;;4.07;3.07;;;-3.00;99.90;;;;;;5017768;28;20231;-77
2021/01/17 08:26:57;;;;;;;1.70;1.60;;;-2.90;99.90;;;;;;5033244;28;20250;-77
2021/01/17 08:29:23;;;;;;;5.20;3.63;;;-2.80;99.90;;;;;;5034115;28;20205;-77
2021/01/17 08:31:48;;;;;;;3.70;2.37;;;-2.70;99.90;;;;;;5032941;28;20631;-76
2021/01/17 08:34:16;;;;;;;3.97;2.80;;;-2.60;99.90;;;;;;5024261;28;20187;-77
2021/01/17 08:36:43;;;;;;;5.33;3.33;;;-2.60;99.90;;;;;;5034101;28;20187;-76
2021/01/17 08:39:09;;;;;;;2.87;2.37;;;-2.50;99.90;;;;;;5033818;28;20219;-76
2021/01/17 08:41:35;;;;;;;2.83;2.37;;;-2.50;99.90;;;;;;5033750;28;20182;-77
2021/01/17 08:44:01;;;;;;;3.27;2.53;;;-2.50;99.90;;;;;;5035538;28;20220;-76
2021/01/17 08:46:37;;;;;;;2.47;1.77;;;-2.40;99.90;;;;;;5031482;28;20186;-75
2021/01/17 08:49:04;;;;;;;3.40;2.53;;;-2.40;99.90;;;;;;5048422;28;20209;-75
2021/01/17 08:51:30;;;;;;;5.17;2.63;;;-2.40;99.90;;;;;;5032298;28;20324;-75
2021/01/17 08:53:56;;;;;;;4.53;3.03;;;-2.40;99.90;;;;;;5030663;28;20276;-74
2021/01/17 08:56:23;;;;;;;4.97;3.83;;;-2.30;99.90;;;;;;5031326;28;20193;-75
2021/01/17 08:58:55;;;;;;;2.67;1.77;;;-2.30;99.90;;;;;;5036631;28;20222;-75
2021/01/17 09:01:22;;;;;;;3.43;2.33;;;-2.30;99.90;;;;;;5036052;28;20182;-75
2021/01/17 09:03:54;;;;;;;6.97;3.10;;;-2.20;99.90;;;;;;5037755;28;20205;-76
2021/01/17 09:06:19;;;;;;;3.47;2.50;;;-2.10;99.90;;;;;;5036371;28;20178;-74
2021/01/17 09:08:48;;;;;;;2.87;1.83;;;-2.10;99.90;;;;;;5052084;28;20557;-76
2021/01/17 09:11:43;;;;;;;4.13;2.50;;;-2.00;99.90;;;;;;5037856;28;20261;-77
2021/01/17 09:14:23;;;;;;;3.20;2.43;;;-2.10;99.90;;;;;;5023293;28;20212;-76
2021/01/17 09:17:07;;;;;;;3.00;2.67;;;-2.10;99.90;;;;;;5036253;28;20644;-75
2021/01/17 09:19:35;;;;;;;3.80;2.63;;;-2.10;99.90;;;;;;5033586;28;20207;-76
2021/01/17 09:22:03;;;;;;;4.13;2.33;;;-2.10;99.90;;;;;;5035413;28;20236;-77
2021/01/17 09:24:31;;;;;;;3.97;2.73;;;-2.00;99.90;;;;;;5038699;28;20199;-77
2021/01/17 09:26:59;;;;;;;7.27;4.40;;;-2.00;99.90;;;;;;5037985;28;20179;-77
2021/01/17 09:29:31;;;;;;;8.93;3.80;;;-1.80;99.90;;;;;;5036931;28;20252;-76
2021/01/17 09:32:11;;;;;;;5.57;3.87;;;-1.60;99.90;;;;;;5037470;28;20177;-76
2021/01/17 09:34:40;;;;;;;6.80;3.83;;;-1.50;99.90;;;;;;5038768;28;20733;-77
2021/01/17 09:37:08;;;;;;;5.90;3.60;;;-1.60;99.90;;;;;;5034029;28;20556;-76
2021/01/17 09:39:42;;;;;;;4.10;2.90;;;-1.50;99.90;;;;;;5033067;28;20214;-76
2021/01/17 09:42:10;;;;;;;3.87;2.60;;;-1.40;99.90;;;;;;5033545;28;20185;-74
2021/01/17 09:44:37;;;;;;;3.00;2.37;;;-1.30;99.90;;;;;;5030834;28;20955;-77
2021/01/17 09:47:04;;;;;;;5.40;3.67;;;-1.30;99.90;;;;;;5033996;28;20678;-75
2021/01/17 09:49:31;;;;;;;3.73;2.77;;;-1.30;99.90;;;;;;5036898;28;20213;-76
2021/01/17 09:51:57;;;;;;;4.57;3.90;;;-1.30;99.90;;;;;;5035412;28;20187;-75
2021/01/17 09:54:24;;;;;;;5.27;4.03;;;-1.30;99.90;;;;;;5034729;28;20187;-75
2021/01/17 09:56:50;;;;;;;2.97;2.57;;;-1.30;99.90;;;;;;5037099;28;20186;-76
2021/01/17 09:59:18;;;;;;;3.07;2.43;;;-1.10;99.90;;;;;;5036629;28;20631;-75
2021/01/17 10:01:45;;;;;;;3.43;2.47;;;-1.10;99.90;;;;;;5034867;28;20186;-76
2021/01/17 10:04:27;;;;;;;6.13;3.60;;;-1.00;99.90;;;;;;5037324;28;20215;-76
2021/01/17 10:06:55;;;;;;;3.77;3.40;;;-1.00;99.90;;;;;;5035254;28;20177;-76
2021/01/17 10:09:22;;;;;;;3.53;2.07;;;-1.10;99.90;;;;;;5033773;28;20230;-75
2021/01/17 10:11:56;;;;;;;3.90;3.03;;;-1.20;99.90;;;;;;5048605;28;20210;-76
2021/01/17 10:14:23;;;;;;;3.73;2.67;;;-1.10;99.90;;;;;;5036049;28;20276;-76
2021/01/17 10:16:50;;;;;;;3.67;2.40;;;-1.00;99.90;;;;;;5035115;28;20186;-76
2021/01/17 10:19:21;;;;;;;5.30;3.20;;;-1.10;99.90;;;;;;5035200;28;20234;-76
2021/01/17 10:21:47;;;;;;;4.77;2.40;;;-1.20;99.90;;;;;;5034135;28;20175;-77
2021/01/17 10:24:20;;;;;;;3.13;2.33;;;-1.20;99.90;;;;;;5035063;28;20217;-76
2021/01/17 10:26:52;;;;;;;4.20;2.67;;;-1.20;99.90;;;;;;5035300;28;20178;-76
2021/01/17 10:29:29;;;;;;;2.93;2.07;;;-1.20;99.90;;;;;;5036068;28;20282;-76
2021/01/17 10:32:15;;;;;;;3.63;2.93;;;-1.10;99.90;;;;;;5034894;28;20251;-76
2021/01/17 10:34:45;;;;;;;4.47;3.40;;;-0.90;99.90;;;;;;5035735;28;21055;-76
2021/01/17 10:37:16;;;;;;;2.67;2.47;;;-0.90;99.90;;;;;;5035757;28;20187;-76
2021/01/17 10:39:41;;;;;;;2.80;2.27;;;-0.80;99.90;;;;;;5036322;28;20214;-77
2021/01/17 10:42:15;;;;;;;3.53;3.00;;;-0.80;99.90;;;;;;5036207;28;20197;-77
2021/01/17 10:45:00;;;;;;;2.87;2.40;;;-0.70;99.90;;;;;;5043594;28;20242;-76
2021/01/17 10:47:59;;;;;;;3.70;2.60;;;-0.60;99.90;;;;;;5032876;28;20186;-76
2021/01/17 10:50:27;;;;;;;3.47;2.70;;;-0.50;99.90;;;;;;5028337;28;20195;-77
2021/01/17 10:53:03;;;;;;;4.53;2.57;;;-0.50;99.90;;;;;;5033202;28;20528;-76
2021/01/17 10:55:43;;;;;;;2.83;2.50;;;-0.50;99.90;;;;;;5030591;28;20555;-77
2021/01/17 10:58:13;;;;;;;3.97;2.27;;;-0.60;99.90;;;;;;5029365;28;20217;-77
2021/01/17 11:01:00;;;;;;;2.73;2.33;;;-0.60;99.90;;;;;;5021485;28;20194;-77
2021/01/17 11:03:40;;;;;;;2.53;2.20;;;-0.60;99.90;;;;;;5034854;28;20710;-76
2021/01/17 11:06:11;;;;;;;6.10;2.67;;;-0.50;99.90;;;;;;5041961;28;20182;-77
2021/01/17 11:08:45;;;;;;;12.73;8.70;;;-0.40;99.90;;;;;;5035523;28;20191;-77
2021/01/17 11:11:11;;;;;;;5.67;4.00;;;-0.40;99.90;;;;;;5042768;28;20265;-77
2021/01/17 11:13:37;;;;;;;3.70;3.23;;;-0.40;99.90;;;;;;5037566;28;20182;-76
2021/01/17 11:16:04;;;;;;;3.17;2.87;;;-0.50;99.90;;;;;;5034648;28;20517;-77
2021/01/17 11:18:32;;;;;;;5.20;3.67;;;-0.40;99.90;;;;;;5030531;28;20211;-75
2021/01/17 11:21:02;;;;;;;3.57;2.63;;;-0.20;99.90;;;;;;5033091;28;20182;-77
2021/01/17 11:23:29;;;;;;;2.87;2.60;;;-0.20;99.90;;;;;;5031920;28;20641;-77
2021/01/17 11:26:07;;;;;;;2.50;2.30;;;-0.20;99.90;;;;;;5032319;28;20192;-77
2021/01/17 11:28:33;;;;;;;3.83;2.87;;;-0.20;99.90;;;;;;5033884;28;20289;-77
2021/01/17 11:31:15;;;;;;;6.33;3.43;;;-0.20;99.90;;;;;;5030797;28;20269;-76
2021/01/17 11:33:41;;;;;;;3.53;2.17;;;-0.20;99.90;;;;;;5031824;28;20189;-77
2021/01/17 11:36:08;;;;;;;6.30;3.77;;;-0.30;99.90;;;;;;5033560;28;20281;-77
2021/01/17 11:38:50;;;;;;;4.43;2.90;;;-0.30;99.90;;;;;;5024656;28;20242;-77
2021/01/17 11:41:17;;;;;;;2.77;1.97;;;-0.30;99.90;;;;;;5034557;28;20198;-76
2021/01/17 11:43:44;;;;;;;4.23;3.23;;;-0.20;99.90;;;;;;5031691;28;20206;-77
2021/01/17 11:46:11;;;;;;;4.33;3.57;;;-0.10;99.90;;;;;;5033988;28;20183;-76
2021/01/17 11:48:38;;;;;;;3.27;2.43;;;-0.10;99.90;;;;;;5033381;28;20230;-78
2021/01/17 11:51:05;;;;;;;4.20;3.53;;;-0.10;99.90;;;;;;5031456;28;20182;-76
2021/01/17 11:53:31;;;;;;;3.83;2.80;;;0.00;99.90;;;;;;5033252;28;20262;-76
2021/01/17 11:55:58;;;;;;;2.70;2.30;;;0.10;99.90;;;;;;5032644;28;20186;-77
2021/01/17 11:58:27;;;;;;;4.97;2.73;;;0.00;99.90;;;;;;5032354;28;20222;-77
2021/01/17 12:00:53;;;;;;;3.67;2.40;;;0.00;99.90;;;;;;5033506;28;20182;-78
2021/01/17 12:03:24;;;;;;;3.87;2.80;;;0.00;99.90;;;;;;5032586;28;20289;-75
2021/01/17 12:06:10;;;;;;;4.83;3.03;;;0.10;99.90;;;;;;5033239;28;20181;-76
2021/01/17 12:08:53;;;;;;;3.83;2.83;;;0.10;99.90;;;;;;5033381;28;20691;-76
2021/01/17 12:11:48;;;;;;;3.30;2.77;;;0.10;99.90;;;;;;5031413;28;20186;-77
2021/01/17 12:14:18;;;;;;;3.60;2.80;;;0.10;99.90;;;;;;5031279;28;20197;-76
2021/01/17 12:16:55;;;;;;;3.70;3.37;;;0.20;99.90;;;;;;5032401;28;20643;-78
2021/01/17 12:19:22;;;;;;;3.47;2.67;;;0.20;99.90;;;;;;5033181;28;20198;-77
2021/01/17 12:21:51;;;;;;;4.00;3.47;;;0.20;99.90;;;;;;5026198;28;20186;-77
2021/01/17 12:24:17;;;;;;;3.33;3.00;;;0.20;99.90;;;;;;5033059;28;20199;-77
2021/01/17 12:26:46;;;;;;;23.23;10.43;;;0.20;99.90;;;;;;5030881;28;20198;-77
2021/01/17 12:29:12;;;;;;;24.97;13.83;;;0.10;99.90;;;;;;5032796;28;20393;-77
2021/01/17 12:31:39;;;;;;;9.30;5.53;;;0.20;99.90;;;;;;5031375;28;20190;-78
2021/01/17 12:34:05;;;;;;;9.37;5.70;;;0.10;99.90;;;;;;5033111;28;20173;-77
2021/01/17 12:36:32;;;;;;;7.83;6.93;;;0.00;99.90;;;;;;5031711;28;20187;-78
2021/01/17 12:38:59;;;;;;;4.07;2.77;;;0.10;99.90;;;;;;5045710;28;20209;-76
2021/01/17 12:41:35;;;;;;;3.07;2.27;;;0.20;99.90;;;;;;5022706;28;20205;-77
2021/01/17 12:44:02;;;;;;;4.03;2.77;;;0.20;99.90;;;;;;5031764;28;20210;-77
2021/01/17 12:46:29;;;;;;;4.50;2.97;;;0.10;99.90;;;;;;5033940;28;20191;-77
2021/01/17 12:48:55;;;;;;;4.50;3.10;;;0.10;99.90;;;;;;5030779;28;20293;-77
2021/01/17 12:51:21;;;;;;;2.83;2.33;;;0.10;99.90;;;;;;5031827;28;20191;-76
2021/01/17 12:53:48;;;;;;;3.07;2.73;;;0.00;99.90;;;;;;5029526;28;20209;-77
2021/01/17 12:56:15;;;;;;;2.80;2.27;;;0.10;99.90;;;;;;5031145;28;20262;-76
2021/01/17 12:58:41;;;;;;;3.73;2.63;;;0.10;99.90;;;;;;5031442;28;20246;-78
2021/01/17 13:01:07;;;;;;;3.67;3.23;;;0.20;99.90;;;;;;5030208;28;20186;-76
2021/01/17 13:03:33;;;;;;;5.17;3.37;;;0.10;99.90;;;;;;5031235;28;20581;-76